Terminal Aerodrome Forecast
Issued by NWS Sioux Falls, SD

Home | Current Version | Previous Version | Text Only | Print | Product List | Glossary On
Versions: 1 2 3 4 5 6 7 8 9 10 11 12 13 14 15 16 17 18 19 20
000
FTUS43 KFSD 122300
TAFFSD
TAF
KFSD 122328Z 1300/1324 VRB04KT P6SM SCT200
     FM130600 29005KT 3SM BR SKC
     FM131300 32008KT P6SM SCT050
     FM131700 32011G18KT P6SM SCT040=

USA.gov is the U.S. government's official web portal to all federal, state and local government web resources and services.